sensor_id;sensor_type;location;lat;lon;timestamp;pressure;altitude;pressure_sealevel;temperature;humidity
31225;BME280;17847;31.524;74.366;2022-09-09T00:00:31;98341.75;;;31.16;71.35
31225;BME280;17847;31.524;74.366;2022-09-09T00:03:16;98331.03;;;31.15;71.16
31225;BME280;17847;31.524;74.366;2022-09-09T00:09:12;98337.13;;;31.05;71.52
31225;BME280;17847;31.524;74.366;2022-09-09T00:12:17;98338.38;;;31.07;71.77
31225;BME280;17847;31.524;74.366;2022-09-09T00:15:14;98341.06;;;31.03;71.89
31225;BME280;17847;31.524;74.366;2022-09-09T00:21:30;98352.25;;;31.07;71.91
31225;BME280;17847;31.524;74.366;2022-09-09T00:24:27;98360.56;;;31.07;71.91
31225;BME280;17847;31.524;74.366;2022-09-09T00:27:19;98360.91;;;31.06;72.28
31225;BME280;17847;31.524;74.366;2022-09-09T00:30:24;98364.13;;;31.08;71.82
31225;BME280;17847;31.524;74.366;2022-09-09T00:33:23;98369.66;;;31.08;72.22
31225;BME280;17847;31.524;74.366;2022-09-09T00:36:13;98375.22;;;31.08;71.92
31225;BME280;17847;31.524;74.366;2022-09-09T00:39:04;98373.69;;;31.10;72.19
31225;BME280;17847;31.524;74.366;2022-09-09T00:42:15;98380.84;;;31.11;72.35
31225;BME280;17847;31.524;74.366;2022-09-09T00:48:15;98376.66;;;31.01;72.29
31225;BME280;17847;31.524;74.366;2022-09-09T00:51:15;98375.91;;;31.05;72.69
31225;BME280;17847;31.524;74.366;2022-09-09T01:00:35;98388.63;;;31.06;72.56
31225;BME280;17847;31.524;74.366;2022-09-09T01:03:36;98396.59;;;31.07;72.55
31225;BME280;17847;31.524;74.366;2022-09-09T01:06:34;98400.16;;;31.08;72.85
31225;BME280;17847;31.524;74.366;2022-09-09T01:09:23;98405.44;;;31.13;72.80
31225;BME280;17847;31.524;74.366;2022-09-09T01:15:11;98405.59;;;31.20;72.37
31225;BME280;17847;31.524;74.366;2022-09-09T03:34:37;98475.22;;;33.65;63.26
31225;BME280;17847;31.524;74.366;2022-09-09T03:37:38;98471.09;;;33.82;64.20
31225;BME280;17847;31.524;74.366;2022-09-09T03:40:14;98488.13;;;34.03;63.10
31225;BME280;17847;31.524;74.366;2022-09-09T03:43:11;98481.84;;;34.10;62.80
31225;BME280;17847;31.524;74.366;2022-09-09T03:46:06;98489.41;;;34.09;61.76
31225;BME280;17847;31.524;74.366;2022-09-09T03:48:51;98500.34;;;34.22;62.25
31225;BME280;17847;31.524;74.366;2022-09-09T03:51:42;98494.75;;;34.22;62.43
31225;BME280;17847;31.524;74.366;2022-09-09T03:54:25;98491.97;;;34.22;60.96
31225;BME280;17847;31.524;74.366;2022-09-09T03:57:14;98498.16;;;34.38;60.83
31225;BME280;17847;31.524;74.366;2022-09-09T03:59:59;98495.38;;;34.38;60.82
31225;BME280;17847;31.524;74.366;2022-09-09T04:02:58;98494.28;;;34.46;60.77
31225;BME280;17847;31.524;74.366;2022-09-09T04:05:41;98494.19;;;34.39;60.66
31225;BME280;17847;31.524;74.366;2022-09-09T04:08:33;98498.22;;;34.42;58.20
31225;BME280;17847;31.524;74.366;2022-09-09T04:11:09;98495.38;;;34.38;57.88
31225;BME280;17847;31.524;74.366;2022-09-09T04:14:07;98494.63;;;34.75;55.90
31225;BME280;17847;31.524;74.366;2022-09-09T04:16:53;98495.13;;;34.50;54.72
31225;BME280;17847;31.524;74.366;2022-09-09T04:19:51;98492.00;;;34.56;55.60
31225;BME280;17847;31.524;74.366;2022-09-09T04:22:28;98496.78;;;34.55;55.18
31225;BME280;17847;31.524;74.366;2022-09-09T04:25:27;98504.13;;;34.67;56.18
31225;BME280;17847;31.524;74.366;2022-09-09T04:28:11;98499.75;;;34.69;54.52
31225;BME280;17847;31.524;74.366;2022-09-09T04:31:20;98502.75;;;34.87;54.35
31225;BME280;17847;31.524;74.366;2022-09-09T04:34:10;98506.13;;;35.07;53.73
31225;BME280;17847;31.524;74.366;2022-09-09T04:37:06;98497.41;;;35.54;51.86
31225;BME280;17847;31.524;74.366;2022-09-09T04:40:02;98506.81;;;35.79;53.05
31225;BME280;17847;31.524;74.366;2022-09-09T04:42:38;98505.97;;;35.79;53.38
31225;BME280;17847;31.524;74.366;2022-09-09T04:45:38;98495.66;;;35.83;52.90
31225;BME280;17847;31.524;74.366;2022-09-09T04:48:26;98494.09;;;35.89;52.81
31225;BME280;17847;31.524;74.366;2022-09-09T04:51:17;98502.22;;;36.16;52.64
31225;BME280;17847;31.524;74.366;2022-09-09T04:53:58;98496.44;;;36.57;50.31
31225;BME280;17847;31.524;74.366;2022-09-09T04:56:58;98500.16;;;36.90;51.04
31225;BME280;17847;31.524;74.366;2022-09-09T04:59:37;98503.41;;;37.10;51.30
31225;BME280;17847;31.524;74.366;2022-09-09T05:02:39;98500.22;;;37.18;49.97
31225;BME280;17847;31.524;74.366;2022-09-09T05:05:18;98500.28;;;37.61;49.76
31225;BME280;17847;31.524;74.366;2022-09-09T05:08:15;98507.78;;;37.00;49.64
31225;BME280;17847;31.524;74.366;2022-09-09T05:10:59;98499.38;;;37.11;50.20
31225;BME280;17847;31.524;74.366;2022-09-09T05:13:52;98501.84;;;37.59;51.22
31225;BME280;17847;31.524;74.366;2022-09-09T05:16:35;98501.84;;;37.52;50.51
31225;BME280;17847;31.524;74.366;2022-09-09T05:19:28;98502.66;;;37.59;47.37
31225;BME280;17847;31.524;74.366;2022-09-09T05:22:19;98503.44;;;37.35;48.56
31225;BME280;17847;31.524;74.366;2022-09-09T05:25:14;98501.06;;;37.22;50.11
31225;BME280;17847;31.524;74.366;2022-09-09T05:27:50;98496.25;;;37.70;48.38
31225;BME280;17847;31.524;74.366;2022-09-09T05:30:59;98498.66;;;37.89;49.83
31225;BME280;17847;31.524;74.366;2022-09-09T05:33:45;98496.25;;;37.55;47.70
31225;BME280;17847;31.524;74.366;2022-09-09T05:36:35;98496.28;;;37.63;49.46
31225;BME280;17847;31.524;74.366;2022-09-09T05:39:31;98489.81;;;38.09;47.29
31225;BME280;17847;31.524;74.366;2022-09-09T05:42:15;98487.81;;;38.13;48.26
31225;BME280;17847;31.524;74.366;2022-09-09T05:45:06;98485.03;;;37.91;46.83
31225;BME280;17847;31.524;74.366;2022-09-09T05:47:43;98486.28;;;37.69;49.09
31225;BME280;17847;31.524;74.366;2022-09-09T05:50:38;98482.59;;;38.08;48.62
31225;BME280;17847;31.524;74.366;2022-09-09T05:53:14;98472.22;;;37.90;47.46
31225;BME280;17847;31.524;74.366;2022-09-09T05:56:12;98473.00;;;36.90;50.57
31225;BME280;17847;31.524;74.366;2022-09-09T05:59:00;98471.03;;;37.01;52.89
31225;BME280;17847;31.524;74.366;2022-09-09T06:01:50;98471.84;;;37.45;50.26
31225;BME280;17847;31.524;74.366;2022-09-09T06:04:36;98465.84;;;37.50;49.80
31225;BME280;17847;31.524;74.366;2022-09-09T06:07:26;98465.06;;;37.42;50.26
31225;BME280;17847;31.524;74.366;2022-09-09T06:10:09;98471.81;;;36.98;50.27
31225;BME280;17847;31.524;74.366;2022-09-09T06:13:05;98458.66;;;37.35;48.09
31225;BME280;17847;31.524;74.366;2022-09-09T06:15:54;98461.47;;;37.31;49.30
31225;BME280;17847;31.524;74.366;2022-09-09T06:18:46;98459.00;;;37.94;48.21
31225;BME280;17847;31.524;74.366;2022-09-09T06:21:36;98455.44;;;37.79;50.27
31225;BME280;17847;31.524;74.366;2022-09-09T06:24:42;98441.03;;;36.88;49.54
31225;BME280;17847;31.524;74.366;2022-09-09T06:27:27;98454.88;;;36.41;51.43
31225;BME280;17847;31.524;74.366;2022-09-09T06:30:21;98448.59;;;36.73;52.17
31225;BME280;17847;31.524;74.366;2022-09-09T06:33:09;98438.19;;;36.66;52.71
31225;BME280;17847;31.524;74.366;2022-09-09T06:36:02;98434.09;;;36.38;52.11
31225;BME280;17847;31.524;74.366;2022-09-09T06:38:59;98431.03;;;36.65;52.93
31225;BME280;17847;31.524;74.366;2022-09-09T06:41:48;98440.19;;;36.76;54.72
31225;BME280;17847;31.524;74.366;2022-09-09T06:45:03;98427.84;;;36.77;51.61
31225;BME280;17847;31.524;74.366;2022-09-09T06:47:55;98429.03;;;36.80;51.00
31225;BME280;17847;31.524;74.366;2022-09-09T06:50:44;98429.75;;;36.55;50.45
31225;BME280;17847;31.524;74.366;2022-09-09T06:53:27;98419.09;;;37.33;49.51
31225;BME280;17847;31.524;74.366;2022-09-09T06:56:20;98411.47;;;37.55;49.06
31225;BME280;17847;31.524;74.366;2022-09-09T06:59:10;98409.47;;;37.52;49.32
31225;BME280;17847;31.524;74.366;2022-09-09T07:02:10;98406.63;;;37.88;49.21
31225;BME280;17847;31.524;74.366;2022-09-09T07:04:57;98394.63;;;37.80;50.69
31225;BME280;17847;31.524;74.366;2022-09-09T07:07:48;98394.66;;;37.73;52.21
31225;BME280;17847;31.524;74.366;2022-09-09T07:10:36;98391.50;;;37.06;48.81
31225;BME280;17847;31.524;74.366;2022-09-09T07:13:31;98394.69;;;37.30;48.68
31225;BME280;17847;31.524;74.366;2022-09-09T07:16:16;98387.50;;;37.18;48.18
31225;BME280;17847;31.524;74.366;2022-09-09T07:19:12;98375.47;;;37.60;48.41
31225;BME280;17847;31.524;74.366;2022-09-09T07:21:56;98369.06;;;37.56;48.91
31225;BME280;17847;31.524;74.366;2022-09-09T07:24:46;98365.88;;;37.51;48.53
31225;BME280;17847;31.524;74.366;2022-09-09T07:27:29;98367.06;;;37.60;49.75
31225;BME280;17847;31.524;74.366;2022-09-09T07:30:25;98345.88;;;37.70;48.08
31225;BME280;17847;31.524;74.366;2022-09-09T07:33:08;98360.34;;;37.15;48.84
31225;BME280;17847;31.524;74.366;2022-09-09T07:36:08;98346.19;;;37.83;49.76
31225;BME280;17847;31.524;74.366;2022-09-09T07:38:55;98349.13;;;37.22;49.43
31225;BME280;17847;31.524;74.366;2022-09-09T07:41:57;98340.31;;;37.41;49.24
31225;BME280;17847;31.524;74.366;2022-09-09T07:44:35;98338.66;;;37.58;47.61
31225;BME280;17847;31.524;74.366;2022-09-09T07:47:32;98325.97;;;37.14;49.12
31225;BME280;17847;31.524;74.366;2022-09-09T07:50:13;98317.09;;;37.41;47.58
31225;BME280;17847;31.524;74.366;2022-09-09T07:53:15;98311.50;;;37.41;48.34
31225;BME280;17847;31.524;74.366;2022-09-09T07:56:06;98307.38;;;37.85;48.19
31225;BME280;17847;31.524;74.366;2022-09-09T07:58:59;98303.16;;;37.34;47.81
31225;BME280;17847;31.524;74.366;2022-09-09T08:01:50;98302.00;;;36.84;49.09
31225;BME280;17847;31.524;74.366;2022-09-09T08:04:53;98288.34;;;37.26;49.28
31225;BME280;17847;31.524;74.366;2022-09-09T08:07:39;98278.31;;;37.43;49.49
31225;BME280;17847;31.524;74.366;2022-09-09T08:10:29;98280.69;;;37.55;47.83
31225;BME280;17847;31.524;74.366;2022-09-09T08:13:13;98279.84;;;37.58;48.07
31225;BME280;17847;31.524;74.366;2022-09-09T08:16:09;98271.91;;;37.50;47.85
31225;BME280;17847;31.524;74.366;2022-09-09T08:18:52;98260.72;;;37.46;48.51
31225;BME280;17847;31.524;74.366;2022-09-09T08:21:45;98261.09;;;37.52;47.93
31225;BME280;17847;31.524;74.366;2022-09-09T08:24:35;98250.28;;;37.57;47.68
31225;BME280;17847;31.524;74.366;2022-09-09T08:27:36;98257.91;;;37.46;48.24
31225;BME280;17847;31.524;74.366;2022-09-09T08:30:12;98249.63;;;37.21;46.21
31225;BME280;17847;31.524;74.366;2022-09-09T08:33:14;98252.34;;;37.32;46.45
31225;BME280;17847;31.524;74.366;2022-09-09T08:36:10;98242.81;;;37.18;47.79
31225;BME280;17847;31.524;74.366;2022-09-09T08:39:07;98238.41;;;37.07;49.52
31225;BME280;17847;31.524;74.366;2022-09-09T08:51:00;98210.06;;;37.15;46.31
31225;BME280;17847;31.524;74.366;2022-09-09T08:53:48;98213.31;;;36.71;47.87
31225;BME280;17847;31.524;74.366;2022-09-09T08:56:40;98205.31;;;36.62;48.26
31225;BME280;17847;31.524;74.366;2022-09-09T08:59:23;98198.88;;;37.01;47.45
31225;BME280;17847;31.524;74.366;2022-09-09T09:11:38;98173.31;;;36.92;47.95
31225;BME280;17847;31.524;74.366;2022-09-09T09:14:45;98166.19;;;36.76;49.63
31225;BME280;17847;31.524;74.366;2022-09-09T09:17:26;98159.75;;;36.94;49.17
31225;BME280;17847;31.524;74.366;2022-09-09T09:20:37;98159.69;;;37.04;47.56
31225;BME280;17847;31.524;74.366;2022-09-09T09:23:26;98165.69;;;37.14;49.23
31225;BME280;17847;31.524;74.366;2022-09-09T09:26:35;98151.78;;;36.85;48.15
31225;BME280;17847;31.524;74.366;2022-09-09T09:29:17;98147.34;;;37.02;48.16
31225;BME280;17847;31.524;74.366;2022-09-09T09:32:23;98134.31;;;36.27;50.36
31225;BME280;17847;31.524;74.366;2022-09-09T09:35:12;98129.41;;;36.81;49.19
31225;BME280;17847;31.524;74.366;2022-09-09T09:38:23;98137.00;;;36.84;50.87
31225;BME280;17847;31.524;74.366;2022-09-09T09:41:42;98131.88;;;36.51;51.21
31225;BME280;17847;31.524;74.366;2022-09-09T09:44:32;98118.72;;;36.33;52.87
31225;BME280;17847;31.524;74.366;2022-09-09T09:47:26;98115.91;;;36.01;52.66
31225;BME280;17847;31.524;74.366;2022-09-09T09:50:19;98119.09;;;35.99;50.19
31225;BME280;17847;31.524;74.366;2022-09-09T09:53:30;98117.50;;;36.05;50.44
31225;BME280;17847;31.524;74.366;2022-09-09T09:56:16;98113.53;;;36.21;51.81
31225;BME280;17847;31.524;74.366;2022-09-09T09:59:34;98101.16;;;35.86;51.28
31225;BME280;17847;31.524;74.366;2022-09-09T10:02:37;98095.19;;;35.98;51.92
31225;BME280;17847;31.524;74.366;2022-09-09T10:05:38;98094.75;;;35.60;51.35
31225;BME280;17847;31.524;74.366;2022-09-09T10:08:43;98101.16;;;35.86;51.54
31225;BME280;17847;31.524;74.366;2022-09-09T10:11:44;98092.78;;;35.97;50.84
31225;BME280;17847;31.524;74.366;2022-09-09T10:29:47;98099.22;;;34.77;55.10
31225;BME280;17847;31.524;74.366;2022-09-09T10:32:54;98116.09;;;34.36;55.95
31225;BME280;17847;31.524;74.366;2022-09-09T10:36:10;98115.78;;;34.52;56.15
31225;BME280;17847;31.524;74.366;2022-09-09T10:42:38;98117.53;;;33.71;58.68
31225;BME280;17847;31.524;74.366;2022-09-09T10:45:36;98104.72;;;33.25;59.32
31225;BME280;17847;31.524;74.366;2022-09-09T10:55:12;98125.66;;;32.32;61.03
31225;BME280;17847;31.524;74.366;2022-09-09T10:58:18;98133.13;;;32.28;62.18
31225;BME280;17847;31.524;74.366;2022-09-09T11:01:15;98139.28;;;31.94;65.80
31225;BME280;17847;31.524;74.366;2022-09-09T11:04:30;98119.31;;;31.62;66.45
31225;BME280;17847;31.524;74.366;2022-09-09T11:07:33;98112.47;;;31.56;66.05
31225;BME280;17847;31.524;74.366;2022-09-09T11:16:52;98103.09;;;31.64;65.06
31225;BME280;17847;31.524;74.366;2022-09-09T11:19:41;98100.75;;;31.66;66.04
31225;BME280;17847;31.524;74.366;2022-09-09T11:23:09;98098.59;;;31.79;65.77
31225;BME280;17847;31.524;74.366;2022-09-09T11:26:00;98097.94;;;31.86;65.63
31225;BME280;17847;31.524;74.366;2022-09-09T11:29:44;98096.56;;;32.22;64.37
31225;BME280;17847;31.524;74.366;2022-09-09T11:39:28;98086.13;;;31.92;63.43
31225;BME280;17847;31.524;74.366;2022-09-09T11:42:32;98081.28;;;31.86;64.55
31225;BME280;17847;31.524;74.366;2022-09-09T11:45:28;98079.72;;;32.11;62.09
31225;BME280;17847;31.524;74.366;2022-09-09T11:48:43;98075.88;;;32.46;62.81
31225;BME280;17847;31.524;74.366;2022-09-09T11:51:29;98085.34;;;32.68;64.72
31225;BME280;17847;31.524;74.366;2022-09-09T11:54:32;98070.88;;;32.29;63.95
31225;BME280;17847;31.524;74.366;2022-09-09T11:57:34;98078.03;;;32.30;61.81
31225;BME280;17847;31.524;74.366;2022-09-09T12:00:37;98072.78;;;32.51;58.84
31225;BME280;17847;31.524;74.366;2022-09-09T12:06:48;98079.06;;;32.48;61.16
31225;BME280;17847;31.524;74.366;2022-09-09T12:12:42;98068.31;;;32.43;60.82
31225;BME280;17847;31.524;74.366;2022-09-09T12:15:28;98081.59;;;32.57;62.29
31225;BME280;17847;31.524;74.366;2022-09-09T12:18:38;98079.16;;;32.55;63.19
31225;BME280;17847;31.524;74.366;2022-09-09T12:27:57;98070.41;;;32.53;63.48
31225;BME280;17847;31.524;74.366;2022-09-09T12:37:38;98072.84;;;32.85;65.38
31225;BME280;17847;31.524;74.366;2022-09-09T12:40:40;98074.84;;;32.85;65.50
31225;BME280;17847;31.524;74.366;2022-09-09T12:43:37;98075.63;;;32.85;65.55
31225;BME280;17847;31.524;74.366;2022-09-09T12:46:41;98077.97;;;32.83;63.72
31225;BME280;17847;31.524;74.366;2022-09-09T12:49:39;98063.72;;;32.85;63.44
31225;BME280;17847;31.524;74.366;2022-09-09T12:52:27;98061.50;;;32.67;58.87
31225;BME280;17847;31.524;74.366;2022-09-09T12:55:29;98059.19;;;32.73;62.10
31225;BME280;17847;31.524;74.366;2022-09-09T12:58:07;98057.22;;;32.73;64.08
31225;BME280;17847;31.524;74.366;2022-09-09T13:01:23;98057.25;;;32.77;65.68
31225;BME280;17847;31.524;74.366;2022-09-09T13:04:21;98061.53;;;32.71;65.00
31225;BME280;17847;31.524;74.366;2022-09-09T13:07:16;98059.44;;;32.61;64.86
31225;BME280;17847;31.524;74.366;2022-09-09T13:09:52;98062.50;;;32.55;64.93
31225;BME280;17847;31.524;74.366;2022-09-09T13:12:49;98062.09;;;32.53;65.00
31225;BME280;17847;31.524;74.366;2022-09-09T13:15:29;98053.75;;;32.53;64.61
31225;BME280;17847;31.524;74.366;2022-09-09T13:18:34;98053.56;;;32.66;66.28
31225;BME280;17847;31.524;74.366;2022-09-09T13:21:12;98055.19;;;32.70;66.41
31225;BME280;17847;31.524;74.366;2022-09-09T13:24:34;98065.25;;;32.82;66.45
31225;BME280;17847;31.524;74.366;2022-09-09T13:27:30;98058.53;;;32.83;66.36
31225;BME280;17847;31.524;74.366;2022-09-09T13:30:38;98059.69;;;32.82;67.00
31225;BME280;17847;31.524;74.366;2022-09-09T13:33:37;98069.97;;;32.78;68.08
31225;BME280;17847;31.524;74.366;2022-09-09T13:36:32;98060.84;;;32.77;66.91
31225;BME280;17847;31.524;74.366;2022-09-09T13:39:25;98065.97;;;32.75;68.79
31225;BME280;17847;31.524;74.366;2022-09-09T13:42:31;98060.38;;;32.72;67.60
31225;BME280;17847;31.524;74.366;2022-09-09T13:45:23;98064.28;;;32.67;68.40
31225;BME280;17847;31.524;74.366;2022-09-09T13:48:21;98053.97;;;32.68;68.10
31225;BME280;17847;31.524;74.366;2022-09-09T13:51:29;98053.31;;;32.78;68.57
31225;BME280;17847;31.524;74.366;2022-09-09T13:54:34;98058.13;;;32.81;68.69
31225;BME280;17847;31.524;74.366;2022-09-09T13:57:19;98056.91;;;32.82;67.72
31225;BME280;17847;31.524;74.366;2022-09-09T14:00:12;98060.13;;;32.84;68.40
31225;BME280;17847;31.524;74.366;2022-09-09T14:02:52;98054.50;;;32.81;68.58
31225;BME280;17847;31.524;74.366;2022-09-09T14:05:56;98062.47;;;32.82;68.29
31225;BME280;17847;31.524;74.366;2022-09-09T14:08:43;98065.66;;;32.84;67.32
31225;BME280;17847;31.524;74.366;2022-09-09T14:11:39;98066.09;;;32.86;67.43
31225;BME280;17847;31.524;74.366;2022-09-09T14:14:17;98064.47;;;32.82;67.63
31225;BME280;17847;31.524;74.366;2022-09-09T14:17:18;98070.13;;;32.89;67.89
31225;BME280;17847;31.524;74.366;2022-09-09T14:20:10;98059.47;;;32.94;66.86
31225;BME280;17847;31.524;74.366;2022-09-09T14:23:02;98071.78;;;32.97;64.66
31225;BME280;17847;31.524;74.366;2022-09-09T14:25:48;98074.19;;;32.99;66.74
31225;BME280;17847;31.524;74.366;2022-09-09T14:28:51;98074.19;;;32.99;66.27
31225;BME280;17847;31.524;74.366;2022-09-09T14:31:37;98073.78;;;32.96;66.03
31225;BME280;17847;31.524;74.366;2022-09-09T14:34:34;98076.50;;;32.93;66.03
31225;BME280;17847;31.524;74.366;2022-09-09T14:37:19;98077.72;;;32.95;65.32
31225;BME280;17847;31.524;74.366;2022-09-09T14:40:10;98080.91;;;32.97;65.06
31225;BME280;17847;31.524;74.366;2022-09-09T14:43:10;98084.44;;;32.91;64.39
31225;BME280;17847;31.524;74.366;2022-09-09T14:45:56;98086.84;;;32.96;65.69
31225;BME280;17847;31.524;74.366;2022-09-09T14:48:44;98089.16;;;32.90;64.74
31225;BME280;17847;31.524;74.366;2022-09-09T14:51:32;98086.44;;;32.94;63.53
31225;BME280;17847;31.524;74.366;2022-09-09T14:54:21;98090.47;;;32.96;63.30
31225;BME280;17847;31.524;74.366;2022-09-09T14:57:05;98091.66;;;32.99;63.59
31225;BME280;17847;31.524;74.366;2022-09-09T14:59:53;98092.88;;;32.98;64.51
31225;BME280;17847;31.524;74.366;2022-09-09T15:02:39;98094.72;;;32.90;64.35
31225;BME280;17847;31.524;74.366;2022-09-09T15:05:39;98097.94;;;32.92;63.27
31225;BME280;17847;31.524;74.366;2022-09-09T15:08:22;98103.03;;;32.87;64.40
31225;BME280;17847;31.524;74.366;2022-09-09T15:11:11;98105.81;;;32.87;65.23
31225;BME280;17847;31.524;74.366;2022-09-09T15:13:56;98110.97;;;32.85;64.73
31225;BME280;17847;31.524;74.366;2022-09-09T15:16:45;98109.44;;;32.91;63.50
31225;BME280;17847;31.524;74.366;2022-09-09T15:19:28;98105.84;;;32.90;65.30
31225;BME280;17847;31.524;74.366;2022-09-09T15:22:18;98109.41;;;32.87;63.23
31225;BME280;17847;31.524;74.366;2022-09-09T15:25:03;98115.38;;;32.89;62.78
31225;BME280;17847;31.524;74.366;2022-09-09T15:27:54;98106.63;;;32.87;63.13
31225;BME280;17847;31.524;74.366;2022-09-09T15:30:39;98109.03;;;32.89;66.25
31225;BME280;17847;31.524;74.366;2022-09-09T15:33:29;98115.75;;;32.88;64.92
31225;BME280;17847;31.524;74.366;2022-09-09T15:36:14;98119.66;;;32.83;63.04
31225;BME280;17847;31.524;74.366;2022-09-09T15:39:12;98117.63;;;32.80;65.57
31225;BME280;17847;31.524;74.366;2022-09-09T15:42:08;98116.03;;;32.79;65.23
31225;BME280;17847;31.524;74.366;2022-09-09T15:45:04;98107.19;;;32.70;66.02
31225;BME280;17847;31.524;74.366;2022-09-09T15:47:48;98109.13;;;32.66;66.93
31225;BME280;17847;31.524;74.366;2022-09-09T15:50:37;98109.44;;;32.61;66.01
31225;BME280;17847;31.524;74.366;2022-09-09T15:53:22;98111.00;;;32.58;66.10
31225;BME280;17847;31.524;74.366;2022-09-09T15:56:16;98107.31;;;32.54;65.88
31225;BME280;17847;31.524;74.366;2022-09-09T15:59:01;98103.16;;;32.64;65.35
31225;BME280;17847;31.524;74.366;2022-09-09T16:01:58;98098.81;;;32.66;65.11
31225;BME280;17847;31.524;74.366;2022-09-09T16:04:36;98089.00;;;32.49;65.14
31225;BME280;17847;31.524;74.366;2022-09-09T16:07:31;98102.66;;;32.58;65.70
31225;BME280;17847;31.524;74.366;2022-09-09T16:10:16;98100.69;;;32.58;64.99
31225;BME280;17847;31.524;74.366;2022-09-09T16:13:05;98091.69;;;32.42;65.67
31225;BME280;17847;31.524;74.366;2022-09-09T16:15:55;98098.47;;;32.45;65.35
31225;BME280;17847;31.524;74.366;2022-09-09T16:18:47;98096.38;;;32.38;67.06
31225;BME280;17847;31.524;74.366;2022-09-09T16:21:35;98098.00;;;32.39;65.98
31225;BME280;17847;31.524;74.366;2022-09-09T16:24:28;98100.34;;;32.37;65.99
31225;BME280;17847;31.524;74.366;2022-09-09T16:27:11;98098.03;;;32.43;66.45
31225;BME280;17847;31.524;74.366;2022-09-09T16:30:01;98099.69;;;32.47;65.98
31225;BME280;17847;31.524;74.366;2022-09-09T16:32:44;98098.84;;;32.43;66.42
31225;BME280;17847;31.524;74.366;2022-09-09T16:35:39;98103.56;;;32.39;66.44
31225;BME280;17847;31.524;74.366;2022-09-09T16:38:23;98101.19;;;32.41;66.04
31225;BME280;17847;31.524;74.366;2022-09-09T16:41:13;98106.03;;;32.48;66.05
31225;BME280;17847;31.524;74.366;2022-09-09T16:44:13;98105.84;;;32.33;66.35
31225;BME280;17847;31.524;74.366;2022-09-09T16:47:04;98101.88;;;32.34;66.14
31225;BME280;17847;31.524;74.366;2022-09-09T16:50:00;98097.13;;;32.35;66.59
31225;BME280;17847;31.524;74.366;2022-09-09T16:52:44;98109.00;;;32.32;66.07
31225;BME280;17847;31.524;74.366;2022-09-09T16:55:39;98105.44;;;32.31;66.37
31225;BME280;17847;31.524;74.366;2022-09-09T16:58:26;98100.50;;;32.21;66.92
31225;BME280;17847;31.524;74.366;2022-09-09T17:01:17;98107.72;;;32.26;67.24
31225;BME280;17847;31.524;74.366;2022-09-09T17:03:56;98103.28;;;32.21;66.54
31225;BME280;17847;31.524;74.366;2022-09-09T17:07:00;98108.03;;;32.21;66.58
31225;BME280;17847;31.524;74.366;2022-09-09T17:09:39;98108.69;;;32.10;66.06
31225;BME280;17847;31.524;74.366;2022-09-09T17:12:36;98106.41;;;32.19;66.11
31225;BME280;17847;31.524;74.366;2022-09-09T17:15:21;98108.72;;;32.14;66.61
31225;BME280;17847;31.524;74.366;2022-09-09T17:18:14;98110.44;;;32.22;65.81
31225;BME280;17847;31.524;74.366;2022-09-09T17:21:12;98108.34;;;32.15;66.12
31225;BME280;17847;31.524;74.366;2022-09-09T17:24:11;98108.28;;;32.12;65.92
31225;BME280;17847;31.524;74.366;2022-09-09T17:26:55;98108.56;;;32.03;66.59
31225;BME280;17847;31.524;74.366;2022-09-09T17:29:44;98111.03;;;32.08;66.12
31225;BME280;17847;31.524;74.366;2022-09-09T17:32:50;98117.00;;;32.10;65.80
31225;BME280;17847;31.524;74.366;2022-09-09T17:36:05;98121.31;;;32.08;65.98
31225;BME280;17847;31.524;74.366;2022-09-09T17:39:09;98118.16;;;32.09;66.16
31225;BME280;17847;31.524;74.366;2022-09-09T17:42:18;98118.72;;;32.18;65.59
31225;BME280;17847;31.524;74.366;2022-09-09T17:45:19;98116.59;;;32.12;65.72
31225;BME280;17847;31.524;74.366;2022-09-09T17:48:30;98116.56;;;32.08;65.75
31225;BME280;17847;31.524;74.366;2022-09-09T17:51:36;98118.91;;;32.06;65.82
31225;BME280;17847;31.524;74.366;2022-09-09T17:54:44;98133.22;;;32.08;65.90
31225;BME280;17847;31.524;74.366;2022-09-09T17:57:47;98130.00;;;32.06;65.49
31225;BME280;17847;31.524;74.366;2022-09-09T18:01:02;98133.22;;;32.08;66.01
31225;BME280;17847;31.524;74.366;2022-09-09T18:04:09;98133.06;;;32.01;64.91
31225;BME280;17847;31.524;74.366;2022-09-09T18:07:17;98130.00;;;32.06;65.70
31225;BME280;17847;31.524;74.366;2022-09-09T18:10:22;98129.16;;;32.02;65.84
31225;BME280;17847;31.524;74.366;2022-09-09T18:13:33;98134.03;;;32.09;66.29
31225;BME280;17847;31.524;74.366;2022-09-09T18:16:39;98133.06;;;32.01;67.21
31225;BME280;17847;31.524;74.366;2022-09-09T18:19:49;98140.25;;;32.02;67.02
31225;BME280;17847;31.524;74.366;2022-09-09T18:22:59;98135.00;;;31.97;66.98
31225;BME280;17847;31.524;74.366;2022-09-09T18:26:17;98139.44;;;32.02;65.10
31225;BME280;17847;31.524;74.366;2022-09-09T18:29:14;98134.69;;;32.02;65.18
31225;BME280;17847;31.524;74.366;2022-09-09T18:32:31;98131.47;;;32.00;66.51
31225;BME280;17847;31.524;74.366;2022-09-09T18:35:28;98131.97;;;32.06;66.94
31225;BME280;17847;31.524;74.366;2022-09-09T18:38:42;98136.22;;;31.99;67.41
31225;BME280;17847;31.524;74.366;2022-09-09T18:41:56;98140.16;;;31.98;67.92
31225;BME280;17847;31.524;74.366;2022-09-09T18:45:12;98136.69;;;32.02;67.60
31225;BME280;17847;31.524;74.366;2022-09-09T18:48:15;98146.63;;;32.03;65.99
31225;BME280;17847;31.524;74.366;2022-09-09T18:51:30;98145.78;;;32.02;66.85
31225;BME280;17847;31.524;74.366;2022-09-09T18:54:29;98144.91;;;31.98;67.38
31225;BME280;17847;31.524;74.366;2022-09-09T18:57:47;98160.75;;;31.97;68.20
31225;BME280;17847;31.524;74.366;2022-09-09T19:00:48;98159.56;;;31.98;67.67
31225;BME280;17847;31.524;74.366;2022-09-09T19:04:05;98164.75;;;32.00;68.56